Aviation Digital Data Service (ADDS)

Output produced by METARs form (1240 UTC 25 September 2018)
found at http://www.aviationweather.gov/metar/data/
 
OMAA 251200Z 30013KT 8000 NSC 38/22 Q1005 NOSIG
TAF OMAA 251100Z 2512/2618 29015KT 8000 NSC 
     BECMG 2518/2520 20005KT 
     PROB30 2600/2604 4000 HZ 
     BECMG 2606/2608 30014KT 
     BECMG 2616/2618 04007KT
       
OMAL 251200Z 25011KT 220V280 4500 DU NSC 40/08 Q1007 TEMPO 3000
TAF OMAL 251100Z 2512/2618 29013KT 8000 NSC 
     BECMG 2517/2519 07005KT 
     BECMG 2600/2602 18010KT 
     BECMG 2607/2609 28015KT 
     BECMG 2616/2618 02007KT
       
OMAD 251200Z 29014KT 9000 NSC 38/20 Q1005 NOSIG
TAF OMAD 251100Z 2512/2618 29012KT 8000 NSC 
     BECMG 2518/2520 21005KT 
     PROB30 2601/2604 4000 HZ 
     BECMG 2606/2608 30014KT 
     BECMG 2616/2618 02004KT
       
OMDB 251200Z 27015KT 210V320 5000 DU FEW040 35/28 Q1005 NOSIG
TAF OMDB 251100Z 2512/2618 27015KT 7000 NSC 
     PROB30 2512/2514 4000 DU 
     BECMG 2516/2518 19007KT 
     BECMG 2607/2609 28013KT 
     BECMG 2615/2617 16005KT
       
OMFJ 251200Z 06010KT 5000 HZ NSC 33/28 Q1004 RMK A2967
TAF OMFJ 251100Z 2512/2618 07006KT 7000 NSC 
     BECMG 2514/2516 15006KT 
     TEMPO 2516/2523 29010G20KT 
     PROB30 2522/2604 VRB03KT 5000 HZ FEW020 
     BECMG 2604/2606 06010KT
       
OMRK 251200Z 27015KT 6000 NSC 37/23 Q1005 A2969
TAF OMRK 251100Z 2512/2618 27013KT 8000 NSC 
     BECMG 2514/2516 16005KT 
     BECMG 2607/2609 31015KT 
     BECMG 2615/2617 16005KT
       
OMSJ 251200Z 26016KT 8000 NSC 36/26 Q1005
TAF OMSJ 251100Z 2512/2618 27016KT 8000 NSC 
     BECMG 2515/2517 18008KT 
     BECMG 2607/2609 29015KT 
     BECMG 2615/2617 16005KT